Trempealeau, WI (54661)

6:09 PM CST on December 08, 2016 (GMT -0600)
Nodine, mn | | Change Station

Elev 1270 ft 43.91 °N, 91.42 °W | Updated 5 seconds ago

Snow
Snow
21.4 °F
Feels Like 10 °F
N
10.3
Wind Variable Wind from West
Gusts 12.3 mph

Today
High -- | Low -- °F
--% Chance of Precip.
Yesterday
High -- | Low -- °F
Precip. -- in
Pressure 30.46 in
Visibility 10.0 miles
Clouds Overcast 3900 ft
Windchill 10 °F
Dew Point -2 °F
Humidity 36%
Rainfall 0.00 in
Snow Depth Not available.
7:28 AM 4:27 PM
Waxing Gibbous, 68% visible
METAR KLSE 082353Z 29011G18KT 10SM OVC039 M03/M09 A3041 RMK AO2 SLP314 60000 T10331089 11028 21039 51016 $
Pressure 30.46 in
Visibility 10.0 miles
Clouds Overcast 3900 ft
Windchill 10 °F
Dew Point -2 °F
Humidity 36%
Rainfall 0.00 in
Snow Depth Not available.
7:28 AM 4:27 PM
Waxing Gibbous, 68% visible
METAR KLSE 082353Z 29011G18KT 10SM OVC039 M03/M09 A3041 RMK AO2 SLP314 60000 T10331089 11028 21039 51016 $

10-Day Weather Forecast

Almanac

Astronomy

Dec. 08, 2016 Rise Set
Actual Time
Civil Twilight
Nautical Twilight
Astronomical Twilight
Moon
Length of Visible Light
Length of Day
Tomorrow will be .
, % of the Moon is Illuminated

Today's Extremes

State Highs State Lows

Community

WunderPhotos

Upload Photos

1,956,277 photos uploaded!

WunderBlog® & News

Nearby

Air Quality

  Air Quality AQ Index Pollutant
Not available.

Snow Depth

Station Depth Elevation

Earthquake Activity

City Distance Mag. Time & Date
Minimum magnitude displayed is 2.5.

Coastal Water Temperatures

Place Temperature

Stations

Nearby Weather Stations

Station Location Temp. Windchill Dew Point Humidity Wind Precip. Elev Updated Type
                   

Watches & Warnings

There are currently no watches in effect.